Weather at Ventotene Heliport

Public forecast

Using degrees Celsius for public forecast. Weather courtesy of forecast.io.

Closest aviation weather report (METAR) to Ventotene Heliport

Closest report is Grazzanise Air Base, 33.4 nm (61.9 km) ENE.

2024/07/16 18:55 (retrieved 38 minutes ago)

LIRM 161855Z 19007KT CAVOK 27/25 Q1012 RMK SKC VIS MIN 9999 WIND THR06 24005KT BLU

Closest aviation forecast (TAF) to Ventotene Heliport

Closest forecast is Naples International Airport, 39.4 nm (73.0 km) E.

2024/07/16 18:21 (retrieved 1 hour ago)

TAF LIRN 161700Z 1618/1718 28012KT CAVOK BECMG 1618/1620 VRB05KT BECMG 1708/1710 21010KT